createdAt,value
2023-04-14T00:01:30.148Z,5.93
2023-04-14T00:03:34.049Z,5.96
2023-04-14T00:05:37.797Z,5.96
2023-04-14T00:07:41.364Z,5.95
2023-04-14T00:09:44.906Z,5.97
2023-04-14T00:11:50.957Z,5.94
2023-04-14T00:13:56.110Z,5.92
2023-04-14T00:15:59.499Z,5.89
2023-04-14T00:18:03.396Z,5.86
2023-04-14T00:20:08.550Z,5.85
2023-04-14T00:22:12.382Z,5.85
2023-04-14T00:24:16.045Z,5.82
2023-04-14T00:26:19.749Z,5.79
2023-04-14T00:28:25.740Z,5.77
2023-04-14T00:30:29.388Z,5.76
2023-04-14T00:32:33.061Z,5.75
2023-04-14T00:34:37.101Z,5.74
2023-04-14T00:36:41.492Z,5.75
2023-04-14T00:38:44.947Z,5.77
2023-04-14T00:40:48.714Z,5.77
2023-04-14T00:42:52.466Z,5.78
2023-04-14T00:44:57.617Z,5.78
2023-04-14T00:47:03.149Z,5.77
2023-04-14T00:49:07.057Z,5.76
2023-04-14T00:51:11.212Z,5.75
2023-04-14T00:53:37.271Z,5.73
2023-04-14T00:55:41.795Z,5.70
2023-04-14T00:57:46.137Z,5.70
2023-04-14T00:59:49.845Z,5.66
2023-04-14T01:01:56.591Z,5.62
2023-04-14T01:04:00.460Z,5.62
2023-04-14T01:06:04.457Z,5.63
2023-04-14T01:08:08.139Z,5.64
2023-04-14T01:10:12.707Z,5.69
2023-04-14T01:12:28.030Z,5.68
2023-04-14T01:14:42.647Z,5.68
2023-04-14T01:16:50.368Z,5.71
2023-04-14T01:19:08.186Z,5.70
2023-04-14T01:21:24.884Z,5.69
2023-04-14T01:23:34.946Z,5.67
2023-04-14T01:29:00.647Z,5.61
2023-04-14T01:31:24.729Z,5.59
2023-04-14T01:33:31.934Z,5.57
2023-04-14T01:35:40.086Z,5.52
2023-04-14T01:37:48.952Z,5.52
2023-04-14T01:39:55.702Z,5.47
2023-04-14T01:41:59.830Z,5.43
2023-04-14T01:44:05.739Z,5.40
2023-04-14T01:46:14.252Z,5.39
2023-04-14T01:48:19.526Z,5.38
2023-04-14T01:50:24.638Z,5.37
2023-04-14T01:52:28.856Z,5.34
2023-04-14T01:54:34.808Z,5.32
2023-04-14T01:56:41.719Z,5.31
2023-04-14T01:58:48.935Z,5.28
2023-04-14T02:00:54.668Z,5.27
2023-04-14T02:02:58.875Z,5.25
2023-04-14T02:05:10.113Z,5.22
2023-04-14T02:07:14.937Z,5.17
2023-04-14T02:09:20.587Z,5.12
2023-04-14T02:11:25.913Z,5.11
2023-04-14T02:13:30.054Z,5.08
2023-04-14T02:15:34.886Z,5.04
2023-04-14T02:17:38.718Z,4.99
2023-04-14T02:19:45.577Z,4.96
2023-04-14T02:21:53.827Z,4.95
2023-04-14T02:23:57.621Z,4.91
2023-04-14T02:26:06.810Z,4.90
2023-04-14T02:28:17.648Z,4.87
2023-04-14T02:30:25.645Z,4.86
2023-04-14T02:32:31.375Z,4.83
2023-04-14T02:34:38.343Z,4.81
2023-04-14T02:36:49.581Z,4.79
2023-04-14T02:38:59.476Z,4.76
2023-04-14T02:41:09.304Z,4.73
2023-04-14T02:43:17.976Z,4.73
2023-04-14T02:45:26.556Z,4.72
2023-04-14T02:47:34.355Z,4.73
2023-04-14T02:49:41.377Z,4.72
2023-04-14T02:51:48.190Z,4.71
2023-04-14T02:53:52.796Z,4.74
2023-04-14T02:56:21.972Z,4.77
2023-04-14T02:58:29.386Z,4.80
2023-04-14T03:00:34.383Z,4.81
2023-04-14T03:02:39.863Z,4.79
2023-04-14T03:04:46.214Z,4.77
2023-04-14T03:06:59.826Z,4.74
2023-04-14T03:09:05.257Z,4.73
2023-04-14T03:11:10.808Z,4.70
2023-04-14T03:13:19.895Z,4.67
2023-04-14T03:15:26.202Z,4.63
2023-04-14T03:17:31.149Z,4.61
2023-04-14T03:19:36.698Z,4.55
2023-04-14T03:21:41.111Z,4.54
2023-04-14T03:23:46.399Z,4.51
2023-04-14T03:25:51.107Z,4.53
2023-04-14T03:28:03.048Z,4.54
2023-04-14T03:30:11.538Z,4.54
2023-04-14T03:32:19.303Z,4.55
2023-04-14T03:34:24.571Z,4.56
2023-04-14T03:36:32.338Z,4.56
2023-04-14T03:38:37.423Z,4.55
2023-04-14T03:40:44.323Z,4.54
2023-04-14T03:42:48.848Z,4.53
2023-04-14T03:44:57.220Z,4.51
2023-04-14T03:47:03.832Z,4.48
2023-04-14T03:49:11.346Z,4.46
2023-04-14T03:51:17.175Z,4.43
2023-04-14T03:53:21.792Z,4.46
2023-04-14T03:55:27.612Z,4.48
2023-04-14T03:57:33.716Z,4.49
2023-04-14T03:59:39.896Z,4.46
2023-04-14T04:01:44.136Z,4.37
2023-04-14T04:03:50.026Z,4.36
2023-04-14T04:05:54.543Z,4.36
2023-04-14T04:08:03.189Z,4.37
2023-04-14T04:10:09.084Z,4.37
2023-04-14T04:12:15.747Z,4.35
2023-04-14T04:14:21.574Z,4.35
2023-04-14T04:16:30.505Z,4.33
2023-04-14T04:18:38.320Z,4.34
2023-04-14T04:20:46.353Z,4.36
2023-04-14T04:22:53.327Z,4.36
2023-04-14T04:24:57.963Z,4.36
2023-04-14T04:27:12.059Z,4.36
2023-04-14T04:29:22.767Z,4.36
2023-04-14T04:31:26.701Z,4.36
2023-04-14T04:33:31.851Z,4.33
2023-04-14T04:35:37.656Z,4.29
2023-04-14T04:37:46.352Z,4.28
2023-04-14T04:39:50.707Z,4.26
2023-04-14T04:42:03.355Z,4.21
2023-04-14T04:44:06.766Z,4.18
2023-04-14T04:46:31.024Z,4.14
2023-04-14T04:48:35.074Z,4.11
2023-04-14T04:50:38.329Z,4.09
2023-04-14T04:52:41.658Z,4.08
2023-04-14T04:54:52.245Z,4.04
2023-04-14T04:56:56.640Z,4.03
2023-04-14T04:59:00.507Z,4.02
2023-04-14T05:01:08.975Z,4.02
2023-04-14T05:03:12.374Z,4.02
2023-04-14T05:05:15.794Z,4.01
2023-04-14T05:07:19.825Z,4.02
2023-04-14T05:09:23.238Z,4.03
2023-04-14T05:11:28.147Z,4.00
2023-04-14T05:13:31.403Z,3.99
2023-04-14T05:15:34.685Z,3.96
2023-04-14T05:17:38.844Z,3.92
2023-04-14T05:19:42.174Z,3.89
2023-04-14T05:21:45.386Z,3.89
2023-04-14T05:23:49.327Z,3.87
2023-04-14T05:25:52.618Z,3.88
2023-04-14T05:27:57.313Z,3.86
2023-04-14T05:30:00.565Z,3.85
2023-04-14T05:32:03.912Z,3.85
2023-04-14T05:34:07.320Z,3.84
2023-04-14T05:36:10.654Z,3.83
2023-04-14T05:38:14.506Z,3.83
2023-04-14T05:40:18.215Z,3.86
2023-04-14T05:42:21.695Z,3.86
2023-04-14T05:44:26.786Z,3.86
2023-04-14T05:46:30.478Z,3.88
2023-04-14T05:48:36.245Z,3.91
2023-04-14T05:50:40.014Z,3.93
2023-04-14T05:52:43.743Z,3.92
2023-04-14T05:54:47.448Z,3.92
2023-04-14T05:56:50.988Z,3.90
2023-04-14T05:58:55.935Z,3.88
2023-04-14T06:01:00.952Z,3.87
2023-04-14T06:03:05.580Z,3.85
2023-04-14T06:05:10.555Z,3.85
2023-04-14T06:07:14.262Z,3.85
2023-04-14T06:09:17.704Z,3.89
2023-04-14T06:11:21.349Z,3.94
2023-04-14T06:13:25.044Z,3.98
2023-04-14T06:15:29.956Z,4.00
2023-04-14T06:17:35.712Z,4.02
2023-04-14T06:19:40.120Z,4.06
2023-04-14T06:21:44.039Z,4.13
2023-04-14T06:23:47.956Z,4.36
2023-04-14T06:25:53.058Z,4.94
2023-04-14T06:27:57.249Z,5.74
2023-04-14T06:30:01.941Z,6.61
2023-04-14T06:32:06.068Z,7.42
2023-04-14T06:34:11.273Z,8.20
2023-04-14T06:36:18.268Z,8.85
2023-04-14T06:38:21.798Z,9.51
2023-04-14T06:40:25.426Z,10.09
2023-04-14T06:42:29.022Z,10.68
2023-04-14T06:44:32.551Z,11.15
2023-04-14T06:46:36.583Z,11.44
2023-04-14T06:48:40.278Z,11.54
2023-04-14T06:50:45.209Z,11.47
2023-04-14T06:52:48.845Z,11.47
2023-04-14T06:54:52.841Z,11.57
2023-04-14T06:56:58.074Z,11.80
2023-04-14T06:59:03.212Z,12.12
2023-04-14T07:01:07.296Z,12.51
2023-04-14T07:03:11.014Z,13.03
2023-04-14T07:05:15.604Z,13.53
2023-04-14T07:07:20.613Z,13.95
2023-04-14T07:09:24.979Z,14.30
2023-04-14T07:11:30.017Z,14.53
2023-04-14T07:13:33.911Z,14.63
2023-04-14T07:15:37.702Z,14.71
2023-04-14T07:17:41.362Z,14.86
2023-04-14T07:19:45.002Z,15.06
2023-04-14T07:21:48.729Z,15.22
2023-04-14T07:23:53.681Z,15.40
2023-04-14T07:25:58.487Z,15.43
2023-04-14T07:28:03.699Z,15.34
2023-04-14T07:30:08.894Z,15.29
2023-04-14T07:32:13.622Z,15.30
2023-04-14T07:34:17.354Z,15.45
2023-04-14T07:36:21.122Z,15.71
2023-04-14T07:38:26.609Z,15.80
2023-04-14T07:40:31.785Z,15.95
2023-04-14T07:42:35.931Z,15.81
2023-04-14T07:44:39.744Z,15.31
2023-04-14T07:46:43.530Z,15.20
2023-04-14T07:48:47.463Z,15.30
2023-04-14T07:50:51.063Z,15.34
2023-04-14T07:52:54.604Z,15.13
2023-04-14T07:54:58.254Z,14.75
2023-04-14T07:57:03.604Z,14.36
2023-04-14T07:59:07.299Z,13.82
2023-04-14T08:01:11.222Z,13.17
2023-04-14T08:03:15.197Z,12.58
2023-04-14T08:05:19.045Z,12.13
2023-04-14T08:07:22.814Z,11.79
2023-04-14T08:09:26.608Z,11.47
2023-04-14T08:11:30.163Z,11.18
2023-04-14T08:13:35.231Z,10.93
2023-04-14T08:15:38.896Z,10.60
2023-04-14T08:17:42.576Z,10.47
2023-04-14T08:19:46.683Z,10.41
2023-04-14T08:21:50.430Z,10.37
2023-04-14T08:23:54.363Z,10.23
2023-04-14T08:25:58.276Z,10.09
2023-04-14T08:28:03.594Z,10.00
2023-04-14T08:30:11.760Z,9.95
2023-04-14T08:32:15.902Z,9.93
2023-04-14T08:34:28.673Z,9.93
2023-04-14T08:36:33.207Z,10.02
2023-04-14T08:38:39.303Z,10.08
2023-04-14T08:40:44.731Z,10.11
2023-04-14T08:42:48.863Z,10.20
2023-04-14T08:44:53.687Z,10.29
2023-04-14T08:46:59.781Z,10.36
2023-04-14T08:49:06.701Z,10.44
2023-04-14T08:51:19.952Z,10.47
2023-04-14T08:53:27.543Z,10.40
2023-04-14T08:55:35.603Z,10.36
2023-04-14T08:57:40.790Z,10.36
2023-04-14T08:59:45.174Z,10.41
2023-04-14T09:01:49.454Z,10.32
2023-04-14T09:03:55.964Z,10.21
2023-04-14T09:06:00.029Z,10.15
2023-04-14T09:08:05.024Z,10.13
2023-04-14T09:10:11.790Z,10.16
2023-04-14T09:12:18.343Z,10.35
2023-04-14T09:14:23.409Z,10.58
2023-04-14T09:16:28.216Z,10.79
2023-04-14T09:18:34.792Z,10.94
2023-04-14T09:20:42.267Z,11.09
2023-04-14T09:22:46.507Z,11.24
2023-04-14T09:24:50.221Z,11.46
2023-04-14T09:26:54.944Z,11.62
2023-04-14T09:28:59.002Z,11.78
2023-04-14T09:31:03.361Z,11.83
2023-04-14T09:33:08.458Z,11.83
2023-04-14T09:35:14.123Z,11.73
2023-04-14T09:37:19.196Z,11.76
2023-04-14T09:39:22.980Z,11.71
2023-04-14T09:41:27.864Z,11.62
2023-04-14T09:43:32.759Z,11.59
2023-04-14T09:45:46.151Z,11.64
2023-04-14T09:47:50.652Z,11.66
2023-04-14T09:49:58.688Z,11.73
2023-04-14T09:52:07.985Z,11.74
2023-04-14T09:54:13.341Z,11.76
2023-04-14T09:56:17.320Z,11.76
2023-04-14T09:58:25.281Z,11.77
2023-04-14T10:00:33.428Z,11.68
2023-04-14T10:02:50.351Z,11.69
2023-04-14T10:05:05.475Z,11.81
2023-04-14T10:07:09.250Z,11.91
2023-04-14T10:09:22.644Z,11.99
2023-04-14T10:11:29.701Z,12.05
2023-04-14T10:13:33.718Z,11.95
2023-04-14T10:15:37.983Z,12.01
2023-04-14T10:17:41.904Z,12.11
2023-04-14T10:19:46.242Z,12.07
2023-04-14T10:21:51.072Z,12.08
2023-04-14T10:23:57.189Z,12.19
2023-04-14T10:26:04.124Z,12.27
2023-04-14T10:28:07.972Z,12.11
2023-04-14T10:30:12.278Z,11.76
2023-04-14T10:32:18.464Z,11.43
2023-04-14T10:34:25.464Z,11.09
2023-04-14T10:36:32.615Z,10.91
2023-04-14T10:38:44.040Z,10.98
2023-04-14T10:40:48.090Z,11.23
2023-04-14T10:42:57.581Z,11.48
2023-04-14T10:45:06.112Z,11.82
2023-04-14T10:47:10.415Z,12.07
2023-04-14T10:49:14.953Z,12.10
2023-04-14T10:51:19.394Z,11.97
2023-04-14T10:53:26.792Z,11.74
2023-04-14T10:55:30.153Z,11.45
2023-04-14T10:57:58.662Z,11.15
2023-04-14T11:00:23.558Z,11.06
2023-04-14T11:02:30.079Z,11.30
2023-04-14T11:04:35.444Z,11.32
2023-04-14T11:06:56.109Z,11.21
2023-04-14T11:09:00.523Z,11.07
2023-04-14T11:11:06.375Z,10.88
2023-04-14T11:13:16.555Z,10.71
2023-04-14T11:15:23.021Z,10.69
2023-04-14T11:17:31.337Z,10.91
2023-04-14T11:19:35.555Z,11.30
2023-04-14T11:21:51.261Z,11.73
2023-04-14T11:23:55.560Z,12.00
2023-04-14T11:25:59.498Z,12.30
2023-04-14T11:28:04.085Z,12.31
2023-04-14T11:30:09.647Z,12.02
2023-04-14T11:32:15.137Z,11.79
2023-04-14T11:34:25.992Z,11.72
2023-04-14T11:36:29.719Z,11.87
2023-04-14T11:38:35.775Z,12.06
2023-04-14T11:40:40.424Z,12.26
2023-04-14T11:42:46.862Z,12.32
2023-04-14T11:44:59.413Z,12.32
2023-04-14T11:47:05.601Z,12.29
2023-04-14T11:49:10.723Z,12.28
2023-04-14T11:51:15.267Z,12.26
2023-04-14T11:53:20.411Z,12.33
2023-04-14T11:55:27.072Z,12.38
2023-04-14T11:57:31.086Z,12.42
2023-04-14T11:59:43.640Z,12.33
2023-04-14T12:01:51.606Z,12.09
2023-04-14T12:03:55.444Z,11.88
2023-04-14T12:06:03.610Z,11.75
2023-04-14T12:08:09.041Z,11.58
2023-04-14T12:10:16.863Z,11.39
2023-04-14T12:12:21.262Z,11.22
2023-04-14T12:14:25.870Z,11.16
2023-04-14T12:16:30.182Z,11.18
2023-04-14T12:18:33.870Z,11.31
2023-04-14T12:20:44.194Z,11.46
2023-04-14T12:22:51.135Z,11.43
2023-04-14T12:24:55.405Z,11.29
2023-04-14T12:26:59.306Z,11.10
2023-04-14T12:29:03.533Z,10.94
2023-04-14T12:31:07.545Z,10.85
2023-04-14T12:33:12.360Z,10.80
2023-04-14T12:35:16.288Z,10.88
2023-04-14T12:37:26.374Z,11.01
2023-04-14T12:39:31.799Z,11.10
2023-04-14T12:41:39.840Z,11.20
2023-04-14T12:43:43.681Z,11.32
2023-04-14T12:45:51.276Z,11.38
2023-04-14T12:47:56.847Z,11.41
2023-04-14T12:50:01.977Z,11.41
2023-04-14T12:52:08.645Z,11.35
2023-04-14T12:54:12.528Z,11.24
2023-04-14T12:56:22.478Z,11.18
2023-04-14T12:58:30.554Z,11.20
2023-04-14T13:00:34.057Z,11.23
2023-04-14T13:02:38.194Z,11.35
2023-04-14T13:04:42.156Z,11.48
2023-04-14T13:06:45.886Z,11.49
2023-04-14T13:08:50.839Z,11.48
2023-04-14T13:10:54.778Z,11.43
2023-04-14T13:12:59.977Z,11.41
2023-04-14T13:15:03.568Z,11.49
2023-04-14T13:17:07.237Z,11.54
2023-04-14T13:19:10.886Z,11.55
2023-04-14T13:21:14.554Z,11.54
2023-04-14T13:23:18.737Z,11.54
2023-04-14T13:25:22.419Z,11.48
2023-04-14T13:27:26.063Z,11.50
2023-04-14T13:29:33.668Z,11.57
2023-04-14T13:31:37.300Z,11.56
2023-04-14T13:33:40.908Z,11.62
2023-04-14T13:35:44.604Z,11.61
2023-04-14T13:37:48.220Z,11.52
2023-04-14T13:39:51.802Z,11.44
2023-04-14T13:41:55.404Z,11.41
2023-04-14T13:43:58.956Z,11.44
2023-04-14T13:46:03.967Z,11.43
2023-04-14T13:48:08.076Z,11.40
2023-04-14T13:50:12.847Z,11.36
2023-04-14T13:52:16.702Z,11.34
2023-04-14T13:54:20.549Z,11.35
2023-04-14T13:56:26.009Z,11.33
2023-04-14T13:58:29.697Z,11.31
2023-04-14T14:00:33.463Z,11.23
2023-04-14T14:02:42.488Z,11.23
2023-04-14T14:04:46.859Z,11.26
2023-04-14T14:06:50.648Z,11.24
2023-04-14T14:09:06.408Z,11.25
2023-04-14T14:11:11.186Z,11.25
2023-04-14T14:13:16.665Z,11.21
2023-04-14T14:15:21.670Z,11.21
2023-04-14T14:17:25.567Z,11.24
2023-04-14T14:19:30.684Z,11.29
2023-04-14T14:21:34.197Z,11.38
2023-04-14T14:23:37.859Z,11.47
2023-04-14T14:25:41.403Z,11.53
2023-04-14T19:33:06.204Z,8.87
2023-04-14T19:35:11.213Z,8.86
2023-04-14T19:37:15.115Z,8.84
2023-04-14T19:39:20.680Z,8.82
2023-04-14T19:41:25.667Z,8.80
2023-04-14T19:43:29.666Z,8.80
2023-04-14T19:45:37.303Z,8.80
2023-04-14T19:47:41.868Z,8.78
2023-04-14T19:49:48.248Z,8.78
2023-04-14T19:51:52.892Z,8.77
2023-04-14T19:53:56.528Z,8.76
2023-04-14T19:56:02.278Z,8.74
2023-04-14T19:58:05.862Z,8.72
2023-04-14T20:00:12.289Z,8.69
2023-04-14T20:02:16.008Z,8.67
2023-04-14T20:04:20.849Z,8.64
2023-04-14T20:06:27.319Z,8.61
2023-04-14T20:08:31.188Z,8.59
2023-04-14T20:10:35.706Z,8.56
2023-04-14T20:12:39.456Z,8.54
2023-04-14T20:14:44.528Z,8.52
2023-04-14T20:16:48.225Z,8.50
2023-04-14T20:18:52.129Z,8.46
2023-04-14T20:20:56.659Z,8.44
2023-04-14T20:23:02.292Z,8.42
2023-04-14T20:25:08.001Z,8.38
2023-04-14T20:27:14.954Z,8.36
2023-04-14T20:29:18.986Z,8.35
2023-04-14T20:31:24.985Z,8.31
2023-04-14T20:33:29.691Z,8.27
2023-04-14T20:35:36.979Z,8.27
2023-04-14T20:37:40.961Z,8.25
2023-04-14T20:39:46.718Z,8.22
2023-04-14T20:41:52.093Z,8.20
2023-04-14T20:43:55.882Z,8.18
2023-04-14T20:46:00.597Z,8.17
2023-04-14T20:48:06.204Z,8.14
2023-04-14T20:50:10.974Z,8.12
2023-04-14T20:52:16.118Z,8.10
2023-04-14T20:54:20.682Z,8.09
2023-04-14T20:56:29.102Z,8.08
2023-04-14T20:58:33.835Z,8.06
2023-04-14T21:00:39.196Z,8.03
2023-04-14T21:02:45.027Z,8.01
2023-04-14T21:04:50.483Z,7.99
2023-04-14T21:06:55.138Z,7.95
2023-04-14T21:09:02.881Z,7.94
2023-04-14T21:11:15.386Z,7.93
2023-04-14T21:15:29.602Z,7.90
2023-04-14T21:15:53.042Z,7.88
2023-04-14T21:17:59.890Z,7.86
2023-04-14T21:20:04.090Z,7.85
2023-04-14T21:22:08.563Z,7.83
2023-04-14T21:24:12.037Z,7.82
2023-04-14T21:26:15.539Z,7.79
2023-04-14T21:28:20.696Z,7.78
2023-04-14T21:30:24.534Z,7.78
2023-04-14T21:32:28.714Z,7.75
2023-04-14T21:34:32.305Z,7.72
2023-04-14T21:36:36.456Z,7.71
2023-04-14T21:38:41.359Z,7.69
2023-04-14T21:40:45.184Z,7.67
2023-04-14T21:42:48.969Z,7.64
2023-04-14T21:44:53.996Z,7.64
2023-04-14T21:46:57.510Z,7.62
2023-04-14T21:49:01.443Z,7.60
2023-04-14T21:51:05.489Z,7.58
2023-04-14T21:53:09.742Z,7.56
2023-04-14T21:55:13.813Z,7.55
2023-04-14T21:57:17.582Z,7.54
2023-04-14T21:59:41.520Z,7.52
2023-04-14T22:01:47.794Z,7.51
2023-04-14T22:03:51.958Z,7.50
2023-04-14T22:05:55.768Z,7.49
2023-04-14T22:07:59.488Z,7.47
2023-04-14T22:10:03.884Z,7.45
2023-04-14T22:12:07.886Z,7.45
2023-04-14T22:14:11.548Z,7.44
2023-04-14T22:16:16.705Z,7.42
2023-04-14T22:18:22.001Z,7.42
2023-04-14T22:20:26.565Z,7.38
2023-04-14T22:22:30.306Z,7.38
2023-04-14T22:24:34.035Z,7.34
2023-04-14T22:26:37.820Z,7.34
2023-04-14T22:28:41.724Z,7.34
2023-04-14T22:30:45.439Z,7.32
2023-04-14T22:32:49.057Z,7.32
2023-04-14T22:34:54.095Z,7.30
2023-04-14T22:36:58.294Z,7.30
2023-04-14T22:39:02.317Z,7.28
2023-04-14T22:41:06.135Z,7.27
2023-04-14T22:43:10.941Z,7.26
2023-04-14T22:45:14.822Z,7.25
2023-04-14T22:47:18.449Z,7.24
2023-04-14T22:49:22.131Z,7.24
2023-04-14T22:51:27.072Z,7.22
2023-04-14T22:53:30.522Z,7.22
2023-04-14T22:55:34.141Z,7.21
2023-04-14T22:57:38.439Z,7.19
2023-04-14T22:59:42.114Z,7.19
2023-04-14T23:01:45.561Z,7.18
2023-04-14T23:03:51.267Z,7.17
2023-04-14T23:05:55.194Z,7.17
2023-04-14T23:08:00.007Z,7.15
2023-04-14T23:10:03.368Z,7.14
2023-04-14T23:12:07.053Z,7.13
2023-04-14T23:14:10.292Z,7.11
2023-04-14T23:16:13.822Z,7.09
2023-04-14T23:18:17.067Z,7.07
2023-04-14T23:20:20.678Z,7.06
2023-04-14T23:22:24.697Z,7.02
2023-04-14T23:24:29.570Z,7.02
2023-04-14T23:26:32.872Z,6.99
2023-04-14T23:28:36.100Z,6.97
2023-04-14T23:30:39.431Z,6.94
2023-04-14T23:32:42.747Z,6.93
2023-04-14T23:34:45.979Z,6.92
2023-04-14T23:36:49.611Z,6.91
2023-04-14T23:38:53.156Z,6.90
2023-04-14T23:40:59.114Z,6.88
2023-04-14T23:43:03.917Z,6.87
2023-04-14T23:45:08.626Z,6.85
2023-04-14T23:47:11.846Z,6.85
2023-04-14T23:49:24.065Z,6.83
2023-04-14T23:51:28.064Z,6.82
2023-04-14T23:53:31.391Z,6.82
2023-04-14T23:55:34.858Z,6.81
2023-04-14T23:57:40.697Z,6.81
2023-04-14T23:59:44.228Z,6.81
